Time;durP1;ratioP1;P1;durP2;ratioP2;P2;SDS_P1;SDS_P2;PMS_P1;PMS_P2;Temp;Humidity;BMP_temperature;BMP_pressure;BME280_temperature;BME280_humidity;BME280_pressure;Samples;Min_cycle;Max_cycle;Signal;HPM_P1;HPM_P2
2021/08/31 00:00:16;;;;;;;;;;;;;;;;;;2074825;28;99892;-16
2021/08/31 00:01:17;;;;;;;;;;;;;;;;;;2074480;28;99904;-15
2021/08/31 00:02:18;;;;;;;;;;;;;;;;;;2074460;28;99987;-16
2021/08/31 00:03:20;;;;;;;;;;;;;;;;;;2074497;28;99904;-16
2021/08/31 00:04:21;;;;;;;;;;;;;;;;;;2073794;28;100133;-14
2021/08/31 00:05:21;;;;;;;;;;;;;;;;;;2073584;28;100071;-15
2021/08/31 00:06:22;;;;;;;;;;;;;;;;;;2073673;28;100082;-15
2021/08/31 00:07:23;;;;;;;;;;;;;;;;;;2057297;28;100016;-16
2021/08/31 00:08:24;;;;;;;;;;;;;;;;;;2065792;28;100300;-14
2021/08/31 00:09:24;;;;;;;;;;;;;;;;;;2074660;28;99987;-18
2021/08/31 00:10:25;;;;;;;;;;;;;;;;;;2074512;28;99893;-17
2021/08/31 09:27:36;;;;;;;6.53;3.15;;;;;;;;;;2106648;27;100068;-17
2021/08/31 09:28:40;;;;;;;6.50;3.58;;;;;;;;;;2106295;27;99878;-16
2021/08/31 09:29:41;;;;;;;9.43;3.63;;;;;;;;;;2105516;27;99947;-16
2021/08/31 09:30:42;;;;;;;5.80;3.13;;;;;;;;;;2105898;27;100461;-20
2021/08/31 09:31:46;;;;;;;6.30;3.45;;;;;;;;;;2104896;27;100221;-17
2021/08/31 09:33:12;;;;;;;4.32;3.17;;;;;;;;;;2105587;27;99930;-18
2021/08/31 09:34:50;;;;;;;5.78;3.20;;;;;;;;;;2105892;27;99903;-18
2021/08/31 09:36:10;;;;;;;6.88;3.05;;;;;;;;;;2105324;27;100274;-18
2021/08/31 09:37:29;;;;;;;7.00;3.35;;;;;;;;;;2105430;27;99950;-19
2021/08/31 09:38:46;;;;;;;8.77;3.33;;;;;;;;;;2105774;27;99930;-17
2021/08/31 09:39:59;;;;;;;6.35;3.40;;;;;;;;;;2104691;27;100052;-17
2021/08/31 09:41:00;;;;;;;12.35;3.22;;;;;;;;;;2098179;27;100072;-18
2021/08/31 09:42:07;;;;;;;8.73;3.38;;;;;;;;;;2105113;27;99970;-18
2021/08/31 09:43:17;;;;;;;6.63;3.30;;;;;;;;;;2105986;27;99872;-18
2021/08/31 09:44:24;;;;;;;9.55;3.03;;;;;;;;;;2106212;27;99814;-16
2021/08/31 09:45:32;;;;;;;7.20;3.17;;;;;;;;;;2105956;27;99999;-15
2021/08/31 09:46:56;;;;;;;8.18;3.33;;;;;;;;;;2106077;27;99894;-16
2021/08/31 09:47:59;;;;;;;6.55;3.10;;;;;;;;;;2106262;27;100047;-18
2021/08/31 09:49:16;;;;;;;5.90;3.10;;;;;;;;;;2105879;27;99991;-17
2021/08/31 09:50:38;;;;;;;5.47;2.85;;;;;;;;;;2105974;27;99856;-16
2021/08/31 09:51:58;;;;;;;4.53;3.05;;;;;;;;;;2105719;27;99957;-15
2021/08/31 09:53:14;;;;;;;8.25;3.30;;;;;;;;;;2104738;27;100016;-18
2021/08/31 09:54:23;;;;;;;5.97;3.00;;;;;;;;;;2090492;27;100101;-17
2021/08/31 09:55:24;;;;;;;8.50;3.25;;;;;;;;;;2096213;27;100026;-15
2021/08/31 09:56:28;;;;;;;;;;;;;;;;;;2094137;27;102350;-16
2021/08/31 09:57:32;;;;;;;7.60;3.40;;;;;;;;;;2088213;27;100031;-17
2021/08/31 09:58:38;;;;;;;5.68;2.75;;;;;;;;;;2087902;27;100103;-19
2021/08/31 09:59:40;;;;;;;4.80;2.70;;;;;;;;;;2087917;27;99962;-15
2021/08/31 10:00:43;;;;;;;8.73;3.00;;;;;;;;;;2102277;27;99978;-24
2021/08/31 10:01:44;;;;;;;7.72;3.35;;;;;;;;;;2104445;27;100139;-17
2021/08/31 10:02:48;;;;;;;5.57;3.53;;;;;;;;;;2089666;27;100046;-18
2021/08/31 10:03:49;;;;;;;6.05;2.90;;;;;;;;;;2098246;27;100023;-19
2021/08/31 10:04:51;;;;;;;;;;;;;;;;;;2105095;27;99968;-18
2021/08/31 10:05:54;;;;;;;4.45;2.60;;;;;;;;;;2104956;27;100004;-18
2021/08/31 10:06:55;;;;;;;5.82;3.30;;;;;;;;;;2096537;27;100021;-17
2021/08/31 10:07:57;;;;;;;4.75;2.85;;;;;;;;;;2096778;27;99992;-16
2021/08/31 10:08:58;;;;;;;4.75;2.88;;;;;;;;;;2096973;27;100036;-18
2021/08/31 10:10:01;;;;;;;4.20;2.67;;;;;;;;;;2096903;27;100070;-16
2021/08/31 10:11:03;;;;;;;5.38;2.92;;;;;;;;;;2096998;27;101891;-17
2021/08/31 10:12:09;;;;;;;7.25;2.90;;;;;;;;;;2097305;27;99938;-18
2021/08/31 10:13:15;;;;;;;7.78;2.70;;;;;;;;;;2087749;27;100561;-18
2021/08/31 10:14:18;;;;;;;6.72;3.17;;;;;;;;;;2088321;27;100191;-16
2021/08/31 10:15:21;;;;;;;6.65;2.75;;;;;;;;;;2088903;27;99852;-17
2021/08/31 10:16:23;;;;;;;6.55;3.15;;;;;;;;;;2088989;27;100024;-18
2021/08/31 10:17:26;;;;;;;5.30;2.75;;;;;;;;;;2088881;27;99986;-17
2021/08/31 10:18:29;;;;;;;6.45;3.05;;;;;;;;;;2089195;27;99944;-17
2021/08/31 10:19:30;;;;;;;4.50;2.80;;;;;;;;;;2088217;27;99936;-18
2021/08/31 10:20:32;;;;;;;5.72;2.92;;;;;;;;;;2088425;27;99861;-16
2021/08/31 10:21:33;;;;;;;5.10;2.63;;;;;;;;;;2087910;27;100603;-16
2021/08/31 10:22:36;;;;;;;4.30;2.45;;;;;;;;;;2088394;27;99970;-19
2021/08/31 10:23:41;;;;;;;4.38;3.28;;;;;;;;;;2091886;27;100042;-18
2021/08/31 10:24:45;;;;;;;6.75;3.10;;;;;;;;;;2087949;27;100316;-15
2021/08/31 10:25:46;;;;;;;5.88;2.92;;;;;;;;;;2087876;27;100163;-15
2021/08/31 10:26:47;;;;;;;;;;;;;;;;;;2088466;27;100779;-19
2021/08/31 10:27:48;;;;;;;5.60;2.90;;;;;;;;;;2087528;27;99919;-17
2021/08/31 10:28:51;;;;;;;6.05;3.10;;;;;;;;;;2082521;28;100037;-18
2021/08/31 10:29:51;;;;;;;5.50;2.83;;;;;;;;;;2082674;28;99959;-17
2021/08/31 10:30:53;;;;;;;;;;;;;;;;;;2083941;27;99928;-19
2021/08/31 10:31:56;;;;;;;4.47;2.80;;;;;;;;;;2083195;28;99984;-15
2021/08/31 10:33:00;;;;;;;4.95;3.00;;;;;;;;;;2082966;28;100077;-16
2021/08/31 10:34:01;;;;;;;9.68;3.10;;;;;;;;;;2090910;27;99925;-17
2021/08/31 10:35:02;;;;;;;;;;;;;;;;;;2099479;27;99958;-16
2021/08/31 10:36:06;;;;;;;5.38;3.10;;;;;;;;;;2083243;28;99877;-19
2021/08/31 10:37:11;;;;;;;7.47;3.03;;;;;;;;;;2083209;27;100177;-17
2021/08/31 10:38:13;;;;;;;6.35;3.08;;;;;;;;;;2083140;28;100091;-19
2021/08/31 10:39:14;;;;;;;6.15;3.22;;;;;;;;;;2083212;28;99945;-19
2021/08/31 10:40:43;;;;;;;9.52;3.03;;;;;;;;;;2083534;28;99930;-18
2021/08/31 10:41:46;;;;;;;5.85;2.83;;;;;;;;;;2082538;27;99946;-18
2021/08/31 10:42:47;;;;;;;7.53;3.15;;;;;;;;;;2083000;28;100032;-19
2021/08/31 10:43:52;;;;;;;;;;;;;;;;;;2083967;27;99978;-20
2021/08/31 10:44:55;;;;;;;5.55;2.80;;;;;;;;;;2082483;27;100011;-18
2021/08/31 10:45:58;;;;;;;4.70;2.85;;;;;;;;;;2086878;27;100054;-17
2021/08/31 10:46:59;;;;;;;5.18;2.60;;;;;;;;;;2086140;27;100041;-16
2021/08/31 10:48:02;;;;;;;;;;;;;;;;;;2082724;27;99955;-17
2021/08/31 10:49:03;;;;;;;7.22;3.00;;;;;;;;;;2099482;27;100337;-17
2021/08/31 10:50:09;;;;;;;6.57;3.03;;;;;;;;;;2099794;27;100303;-16
2021/08/31 10:51:10;;;;;;;7.25;3.00;;;;;;;;;;2099068;27;100000;-18
2021/08/31 10:52:11;;;;;;;5.20;2.83;;;;;;;;;;2099277;27;100186;-20
2021/08/31 10:53:36;;;;;;;7.68;2.90;;;;;;;;;;2098992;27;100194;-18
2021/08/31 10:54:45;;;;;;;7.75;3.20;;;;;;;;;;2099459;27;100095;-18
2021/08/31 10:55:46;;;;;;;7.18;2.92;;;;;;;;;;2099169;27;99944;-18
2021/08/31 10:56:47;;;;;;;6.22;2.88;;;;;;;;;;2099144;27;100123;-18
2021/08/31 10:57:48;;;;;;;;;;;;;;;;;;2100396;27;99944;-17
2021/08/31 10:58:53;;;;;;;5.13;3.13;;;;;;;;;;2099854;27;100231;-18
2021/08/31 10:59:54;;;;;;;6.55;3.00;;;;;;;;;;2099221;27;100140;-16
2021/08/31 11:00:55;;;;;;;;;;;;;;;;;;2099629;27;100149;-16
2021/08/31 11:01:57;;;;;;;5.05;2.97;;;;;;;;;;2091731;27;100045;-19
2021/08/31 11:03:02;;;;;;;7.43;2.70;;;;;;;;;;2079336;28;101575;-19
2021/08/31 11:04:30;;;;;;;6.57;2.90;;;;;;;;;;2073612;28;100139;-18
2021/08/31 11:05:35;;;;;;;3.78;2.95;;;;;;;;;;2084406;27;99984;-16
2021/08/31 11:06:36;;;;;;;5.93;3.50;;;;;;;;;;2090870;27;100031;-19
2021/08/31 11:07:37;;;;;;;6.20;3.10;;;;;;;;;;2107588;27;100121;-19
2021/08/31 11:08:37;;;;;;;;;;;;;;;;;;2108161;27;99871;-17
2021/08/31 11:09:39;;;;;;;5.35;2.72;;;;;;;;;;2090254;27;99959;-20
2021/08/31 11:10:42;;;;;;;8.32;3.00;;;;;;;;;;2082841;27;99996;-16
2021/08/31 11:11:46;;;;;;;6.90;3.00;;;;;;;;;;2082359;27;101667;-18
2021/08/31 11:12:48;;;;;;;5.60;3.45;;;;;;;;;;2082954;27;99921;-17
2021/08/31 11:13:56;;;;;;;8.00;3.15;;;;;;;;;;2082594;27;99908;-18
2021/08/31 11:14:58;;;;;;;6.60;2.95;;;;;;;;;;2089019;27;99937;-18
2021/08/31 11:15:59;;;;;;;6.25;3.28;;;;;;;;;;2091153;27;100683;-18
2021/08/31 11:17:00;;;;;;;;;;;;;;;;;;2091142;27;100141;-16
2021/08/31 11:18:01;;;;;;;6.40;3.15;;;;;;;;;;2091183;27;99938;-19
2021/08/31 11:19:03;;;;;;;5.32;3.05;;;;;;;;;;2089325;27;99936;-18
2021/08/31 11:20:17;;;;;;;6.53;3.15;;;;;;;;;;2089598;27;99968;-17
2021/08/31 11:21:19;;;;;;;11.50;3.88;;;;;;;;;;2089598;27;100142;-19
2021/08/31 11:22:22;;;;;;;7.97;3.88;;;;;;;;;;2090855;27;99884;-17
2021/08/31 11:23:23;;;;;;;5.38;3.00;;;;;;;;;;2091172;27;99990;-19
2021/08/31 11:24:25;;;;;;;6.05;3.10;;;;;;;;;;2090894;27;99943;-17
2021/08/31 11:25:40;;;;;;;4.88;3.60;;;;;;;;;;2073901;28;100052;-18
2021/08/31 11:26:42;;;;;;;55.00;18.20;;;;;;;;;;2087073;27;100315;-18
2021/08/31 11:27:57;;;;;;;21.73;8.25;;;;;;;;;;2098541;27;100288;-16
2021/08/31 11:29:06;;;;;;;14.25;5.07;;;;;;;;;;2090430;27;100018;-16
2021/08/31 11:30:08;;;;;;;12.68;6.18;;;;;;;;;;2090094;27;99888;-15
2021/08/31 11:31:13;;;;;;;14.80;6.60;;;;;;;;;;2089963;27;100140;-17
2021/08/31 11:32:19;;;;;;;19.55;6.00;;;;;;;;;;2098533;27;100118;-18
2021/08/31 11:33:25;;;;;;;17.75;8.18;;;;;;;;;;2097380;27;99862;-18
2021/08/31 11:34:26;;;;;;;16.48;7.60;;;;;;;;;;2090697;27;100204;-19
2021/08/31 11:35:28;;;;;;;20.23;8.38;;;;;;;;;;2093689;27;101803;-20
2021/08/31 11:36:29;;;;;;;26.98;9.02;;;;;;;;;;2098168;27;100300;-19
2021/08/31 11:37:30;;;;;;;22.27;9.23;;;;;;;;;;2099177;27;100009;-17
2021/08/31 11:38:42;;;;;;;;;;;;;;;;;;2099228;27;100034;-18
2021/08/31 11:39:43;;;;;;;20.83;9.57;;;;;;;;;;2097825;27;100351;-18
2021/08/31 11:40:44;;;;;;;;;;;;;;;;;;2098072;27;100071;-19
2021/08/31 11:41:45;;;;;;;24.15;8.95;;;;;;;;;;2099282;27;100004;-20
2021/08/31 11:42:57;;;;;;;26.42;9.80;;;;;;;;;;2098830;27;100154;-20
2021/08/31 11:43:58;;;;;;;25.13;9.90;;;;;;;;;;2098434;27;99910;-18
2021/08/31 11:44:59;;;;;;;29.92;10.98;;;;;;;;;;2097835;27;99976;-18
2021/08/31 11:46:00;;;;;;;;;;;;;;;;;;2099642;27;99913;-19
2021/08/31 11:47:01;;;;;;;25.10;9.52;;;;;;;;;;2097766;27;100124;-19
2021/08/31 11:48:03;;;;;;;24.92;10.27;;;;;;;;;;2090167;27;99946;-16
2021/08/31 11:49:18;;;;;;;28.48;11.02;;;;;;;;;;2098225;27;100142;-19
2021/08/31 11:50:20;;;;;;;29.55;10.52;;;;;;;;;;2098378;27;99890;-18
2021/08/31 11:51:21;;;;;;;28.00;9.70;;;;;;;;;;2097507;27;100032;-19
2021/08/31 11:52:24;;;;;;;26.10;9.50;;;;;;;;;;2098305;27;100058;-20
2021/08/31 11:53:25;;;;;;;25.45;9.55;;;;;;;;;;2098421;27;100353;-19
2021/08/31 11:54:29;;;;;;;28.85;9.73;;;;;;;;;;2098350;27;100304;-17
2021/08/31 11:55:30;;;;;;;32.97;10.23;;;;;;;;;;2098469;27;100068;-18
2021/08/31 11:56:31;;;;;;;;;;;;;;;;;;2099752;27;100292;-18
2021/08/31 11:57:33;;;;;;;26.98;10.18;;;;;;;;;;2099244;27;99852;-18
2021/08/31 11:58:44;;;;;;;24.45;9.18;;;;;;;;;;2099127;27;100387;-17
2021/08/31 11:59:49;;;;;;;27.20;9.50;;;;;;;;;;2099212;27;99818;-18
2021/08/31 12:00:51;;;;;;;17.92;8.05;;;;;;;;;;2099126;27;99952;-17
2021/08/31 12:01:51;;;;;;;25.25;9.93;;;;;;;;;;2099210;27;99889;-18
2021/08/31 12:02:52;;;;;;;;;;;;;;;;;;2098935;27;100031;-17
2021/08/31 12:03:53;;;;;;;23.70;7.80;;;;;;;;;;2092121;27;100183;-17
2021/08/31 12:04:54;;;;;;;;;;;;;;;;;;2090703;27;100271;-18
2021/08/31 12:06:04;;;;;;;22.98;8.95;;;;;;;;;;2090589;27;100125;-17
2021/08/31 12:07:06;;;;;;;23.85;8.23;;;;;;;;;;2090718;27;100084;-17
2021/08/31 12:08:08;;;;;;;19.02;8.40;;;;;;;;;;2090716;27;99857;-20
2021/08/31 12:09:09;;;;;;;22.20;8.48;;;;;;;;;;2090651;27;99963;-19
2021/08/31 12:10:22;;;;;;;24.25;8.77;;;;;;;;;;2090552;27;100186;-17
2021/08/31 12:11:26;;;;;;;18.13;8.35;;;;;;;;;;2090692;27;100129;-20
2021/08/31 12:12:29;;;;;;;19.00;8.00;;;;;;;;;;2090391;27;100141;-20
2021/08/31 12:13:31;;;;;;;21.25;8.77;;;;;;;;;;2090259;27;99935;-19
2021/08/31 12:14:32;;;;;;;19.83;8.40;;;;;;;;;;2090300;27;100290;-16
2021/08/31 12:15:33;;;;;;;20.48;8.43;;;;;;;;;;2089677;27;100004;-17
2021/08/31 12:16:35;;;;;;;25.50;8.80;;;;;;;;;;2089793;27;101102;-19
2021/08/31 12:17:41;;;;;;;17.17;8.02;;;;;;;;;;2090695;27;99951;-18
2021/08/31 12:18:42;;;;;;;20.48;8.38;;;;;;;;;;2090479;27;100114;-20
2021/08/31 12:19:46;;;;;;;19.95;8.30;;;;;;;;;;2090789;27;99962;-16
2021/08/31 12:20:48;;;;;;;19.38;7.97;;;;;;;;;;2089649;27;100005;-17
2021/08/31 12:22:07;;;;;;;24.00;8.82;;;;;;;;;;2081926;27;100533;-18
2021/08/31 12:23:10;;;;;;;19.10;8.13;;;;;;;;;;2096751;27;100335;-18
2021/08/31 12:24:15;;;;;;;20.52;7.80;;;;;;;;;;2098744;27;99886;-18
2021/08/31 12:25:18;;;;;;;16.50;6.95;;;;;;;;;;2098541;27;99887;-20
2021/08/31 12:26:34;;;;;;;17.88;7.57;;;;;;;;;;2098483;27;100270;-18
2021/08/31 12:27:39;;;;;;;15.15;6.35;;;;;;;;;;2098517;27;99876;-20
2021/08/31 12:29:00;;;;;;;15.65;7.45;;;;;;;;;;2092871;27;100156;-17
2021/08/31 12:30:03;;;;;;;16.58;7.18;;;;;;;;;;2098574;27;100089;-18
2021/08/31 12:31:12;;;;;;;14.45;6.35;;;;;;;;;;2098361;27;99995;-20
2021/08/31 12:32:14;;;;;;;19.30;7.43;;;;;;;;;;2088378;27;100111;-18
2021/08/31 12:33:27;;;;;;;15.52;7.05;;;;;;;;;;2085840;27;101675;-21
2021/08/31 12:34:29;;;;;;;16.77;6.78;;;;;;;;;;2089246;27;99888;-19
2021/08/31 12:35:43;;;;;;;12.38;6.00;;;;;;;;;;2078623;28;100343;-17
2021/08/31 12:36:44;;;;;;;19.38;7.72;;;;;;;;;;2080977;28;100027;-20
2021/08/31 12:37:45;;;;;;;19.85;7.80;;;;;;;;;;2078211;28;100096;-16
2021/08/31 12:38:47;;;;;;;22.77;8.20;;;;;;;;;;2078216;28;100030;-21
2021/08/31 12:39:48;;;;;;;13.70;6.78;;;;;;;;;;2081798;27;99995;-15
2021/08/31 12:40:53;;;;;;;;;;;;;;;;;;2090293;27;99984;-17
2021/08/31 12:41:55;;;;;;;13.98;6.63;;;;;;;;;;2088993;27;100180;-18
2021/08/31 12:43:24;;;;;;;16.38;6.93;;;;;;;;;;2081816;27;100008;-15
2021/08/31 12:44:25;;;;;;;14.90;6.95;;;;;;;;;;2080527;27;99986;-15
2021/08/31 12:45:27;;;;;;;17.17;6.75;;;;;;;;;;2081075;28;100201;-15
2021/08/31 12:46:36;;;;;;;14.18;6.97;;;;;;;;;;2087292;27;99924;-16
2021/08/31 12:47:49;;;;;;;16.67;7.88;;;;;;;;;;2097615;27;99999;-17
2021/08/31 12:49:00;;;;;;;16.52;7.85;;;;;;;;;;2097864;27;100179;-16
2021/08/31 12:50:09;;;;;;;;;;;;;;;;;;2098872;27;100110;-16
2021/08/31 12:51:10;;;;;;;17.15;7.25;;;;;;;;;;2092008;27;100026;-22
2021/08/31 12:52:20;;;;;;;19.10;7.20;;;;;;;;;;2090434;27;100050;-18
2021/08/31 12:53:37;;;;;;;23.25;7.32;;;;;;;;;;2090003;27;99926;-18
2021/08/31 12:54:38;;;;;;;13.98;6.53;;;;;;;;;;2082000;27;99843;-15
2021/08/31 12:55:39;;;;;;;;;;;;;;;;;;2088917;27;99935;-14
2021/08/31 12:56:52;;;;;;;15.02;6.63;;;;;;;;;;2089635;27;100263;-19
2021/08/31 12:57:53;;;;;;;16.70;7.38;;;;;;;;;;2089715;27;99927;-19
2021/08/31 12:59:04;;;;;;;;;;;;;;;;;;2090644;27;99985;-16
2021/08/31 13:00:20;;;;;;;17.38;7.40;;;;;;;;;;2089751;27;100133;-16
2021/08/31 13:01:22;;;;;;;14.57;6.22;;;;;;;;;;2091739;27;99986;-16
2021/08/31 13:02:35;;;;;;;13.10;6.22;;;;;;;;;;2089462;27;100761;-17
2021/08/31 13:03:38;;;;;;;9.43;5.32;;;;;;;;;;2093667;27;100049;-16
2021/08/31 13:04:41;;;;;;;15.25;6.88;;;;;;;;;;2098837;27;99940;-17
2021/08/31 13:05:42;;;;;;;15.48;6.95;;;;;;;;;;2098022;27;100360;-16
2021/08/31 13:06:45;;;;;;;17.55;6.85;;;;;;;;;;2098030;27;100076;-17
2021/08/31 13:07:46;;;;;;;17.02;7.25;;;;;;;;;;2098726;27;99914;-18
2021/08/31 13:08:46;;;;;;;;;;;;;;;;;;2098548;27;100149;-16
2021/08/31 13:09:49;;;;;;;15.40;7.30;;;;;;;;;;2098132;27;99998;-16
2021/08/31 13:10:50;;;;;;;12.70;6.55;;;;;;;;;;2098857;27;100038;-16
2021/08/31 13:11:52;;;;;;;17.52;7.28;;;;;;;;;;2098729;27;99906;-16
2021/08/31 13:12:53;;;;;;;11.15;6.47;;;;;;;;;;2098714;27;100291;-16
2021/08/31 13:13:54;;;;;;;;;;;;;;;;;;2088328;27;100186;-17
2021/08/31 13:14:56;;;;;;;18.30;7.05;;;;;;;;;;2089007;27;100356;-18
2021/08/31 13:15:59;;;;;;;12.18;6.32;;;;;;;;;;2097675;27;99995;-17
2021/08/31 13:17:01;;;;;;;11.82;6.47;;;;;;;;;;2098325;27;100244;-17
2021/08/31 13:18:03;;;;;;;16.58;6.80;;;;;;;;;;2098055;27;99951;-19
2021/08/31 13:19:05;;;;;;;13.93;6.38;;;;;;;;;;2097895;27;100198;-18
2021/08/31 13:20:06;;;;;;;15.25;6.43;;;;;;;;;;2097473;27;100060;-17
2021/08/31 13:21:07;;;;;;;15.57;6.38;;;;;;;;;;2098753;27;99858;-16
2021/08/31 13:22:08;;;;;;;14.30;6.55;;;;;;;;;;2088638;27;99941;-17
2021/08/31 13:23:09;;;;;;;19.50;5.90;;;;;;;;;;2089711;27;99786;-16
2021/08/31 13:24:12;;;;;;;;;;;;;;;;;;2090556;27;99795;-17
2021/08/31 13:25:13;;;;;;;11.98;6.05;;;;;;;;;;2089983;27;99947;-15
2021/08/31 13:26:16;;;;;;;;;;;;;;;;;;2090096;27;100531;-18
2021/08/31 13:27:17;;;;;;;11.95;5.28;;;;;;;;;;2089500;27;100193;-16
2021/08/31 13:28:18;;;;;;;11.75;5.65;;;;;;;;;;2090598;27;99826;-17
2021/08/31 13:29:19;;;;;;;;;;;;;;;;;;2090956;27;99746;-17
2021/08/31 13:30:20;;;;;;;;;;;;;;;;;;2090929;27;99883;-19
2021/08/31 13:31:22;;;;;;;13.25;6.10;;;;;;;;;;2090569;27;99885;-16
2021/08/31 13:32:23;;;;;;;14.73;5.72;;;;;;;;;;2089737;27;100028;-18
2021/08/31 13:33:24;;;;;;;11.20;5.43;;;;;;;;;;2089474;27;100125;-18
2021/08/31 13:34:24;;;;;;;;;;;;;;;;;;2091060;27;99985;-17
2021/08/31 13:35:25;;;;;;;14.73;5.88;;;;;;;;;;2090583;27;99850;-16
2021/08/31 13:36:27;;;;;;;10.35;5.57;;;;;;;;;;2090477;27;99881;-19
2021/08/31 13:37:28;;;;;;;13.63;5.82;;;;;;;;;;2090646;27;99850;-16
2021/08/31 13:38:29;;;;;;;;;;;;;;;;;;2090602;27;99911;-17
2021/08/31 13:39:30;;;;;;;11.18;5.63;;;;;;;;;;2089871;27;99807;-17
2021/08/31 13:40:30;;;;;;;;;;;;;;;;;;2090030;27;99949;-16
2021/08/31 13:41:35;;;;;;;11.13;5.28;;;;;;;;;;2090561;27;99962;-17
2021/08/31 13:42:35;;;;;;;9.60;5.05;;;;;;;;;;2089508;27;100134;-18
2021/08/31 13:43:37;;;;;;;;;;;;;;;;;;2081841;28;99926;-16
2021/08/31 13:44:38;;;;;;;12.18;5.47;;;;;;;;;;2089914;27;99921;-19
2021/08/31 13:45:39;;;;;;;12.75;5.43;;;;;;;;;;2089242;27;99977;-17
2021/08/31 13:46:41;;;;;;;10.70;5.10;;;;;;;;;;2090121;27;99949;-19
2021/08/31 13:47:43;;;;;;;15.40;5.32;;;;;;;;;;2090204;27;100832;-19
2021/08/31 13:48:43;;;;;;;;;;;;;;;;;;2090884;27;100004;-18
2021/08/31 13:49:44;;;;;;;10.07;4.75;;;;;;;;;;2090511;27;99994;-16
2021/08/31 13:50:46;;;;;;;16.65;5.40;;;;;;;;;;2089379;27;100241;-18
2021/08/31 13:51:47;;;;;;;13.57;5.60;;;;;;;;;;2089426;27;100179;-18
2021/08/31 13:52:47;;;;;;;;;;;;;;;;;;2086301;27;100141;-18
2021/08/31 13:53:50;;;;;;;11.93;4.85;;;;;;;;;;2087357;27;101809;-18
2021/08/31 13:54:51;;;;;;;;;;;;;;;;;;2097480;27;99817;-18
2021/08/31 13:55:53;;;;;;;12.25;5.13;;;;;;;;;;2089376;27;99945;-17
2021/08/31 13:56:54;;;;;;;10.40;5.25;;;;;;;;;;2089378;27;99996;-16
2021/08/31 13:57:55;;;;;;;11.25;5.03;;;;;;;;;;2089477;27;99848;-20
2021/08/31 13:58:56;;;;;;;14.00;5.63;;;;;;;;;;2089503;27;100043;-18
2021/08/31 13:59:57;;;;;;;12.82;5.30;;;;;;;;;;2081073;27;100316;-17
2021/08/31 14:00:59;;;;;;;15.45;5.30;;;;;;;;;;2088960;27;99988;-18
2021/08/31 14:02:00;;;;;;;11.68;5.28;;;;;;;;;;2090560;27;100211;-18
2021/08/31 14:03:02;;;;;;;12.27;5.18;;;;;;;;;;2090287;27;99863;-19
2021/08/31 14:04:04;;;;;;;10.88;4.85;;;;;;;;;;2090618;27;99950;-18
2021/08/31 14:05:05;;;;;;;9.48;4.80;;;;;;;;;;2082468;27;100245;-17
2021/08/31 14:06:07;;;;;;;9.23;4.35;;;;;;;;;;2083530;28;100108;-17
2021/08/31 14:07:11;;;;;;;8.57;4.68;;;;;;;;;;2091548;27;99830;-17
2021/08/31 14:08:12;;;;;;;8.95;5.00;;;;;;;;;;2091264;27;99838;-18
2021/08/31 14:09:13;;;;;;;10.15;4.88;;;;;;;;;;2108100;27;99873;-18
2021/08/31 14:10:14;;;;;;;11.75;4.85;;;;;;;;;;2107133;27;100051;-17
2021/08/31 14:11:15;;;;;;;11.57;4.50;;;;;;;;;;2083386;28;99957;-18
2021/08/31 14:12:16;;;;;;;10.07;4.80;;;;;;;;;;2088933;27;99999;-21
2021/08/31 14:13:18;;;;;;;9.93;5.00;;;;;;;;;;2091531;27;99929;-18
2021/08/31 14:14:19;;;;;;;11.20;4.85;;;;;;;;;;2091753;27;99874;-17
2021/08/31 14:15:20;;;;;;;9.00;4.88;;;;;;;;;;2091729;27;100021;-19
2021/08/31 14:16:22;;;;;;;11.93;4.95;;;;;;;;;;2091887;27;99773;-17
2021/08/31 14:17:23;;;;;;;11.35;5.03;;;;;;;;;;2090501;27;100602;-18
2021/08/31 14:18:24;;;;;;;9.48;4.78;;;;;;;;;;2099164;27;100127;-19
2021/08/31 14:19:29;;;;;;;10.55;4.30;;;;;;;;;;2106682;27;99900;-19
2021/08/31 14:20:31;;;;;;;12.07;4.65;;;;;;;;;;2091750;27;99879;-16
2021/08/31 14:21:32;;;;;;;10.90;5.07;;;;;;;;;;2091398;27;99951;-19
2021/08/31 14:22:33;;;;;;;11.55;4.53;;;;;;;;;;2108055;27;100012;-19
2021/08/31 14:23:34;;;;;;;;;;;;;;;;;;2091144;27;99969;-18
2021/08/31 14:24:36;;;;;;;;;;;;;;;;;;2083010;27;100079;-19
2021/08/31 14:25:38;;;;;;;8.35;4.18;;;;;;;;;;2083490;27;100007;-17
2021/08/31 14:26:39;;;;;;;7.70;4.45;;;;;;;;;;2082295;28;99938;-19
2021/08/31 14:27:40;;;;;;;8.63;4.57;;;;;;;;;;2082504;28;99820;-17
2021/08/31 14:28:42;;;;;;;13.73;4.88;;;;;;;;;;2085977;27;99989;-19
2021/08/31 14:29:43;;;;;;;6.80;4.53;;;;;;;;;;2090809;27;100276;-18
2021/08/31 14:30:44;;;;;;;11.70;4.95;;;;;;;;;;2091725;27;100014;-18
2021/08/31 14:31:58;;;;;;;7.28;4.45;;;;;;;;;;2091121;27;100019;-17
2021/08/31 14:32:59;;;;;;;10.55;4.57;;;;;;;;;;2090689;27;99858;-18
2021/08/31 14:34:00;;;;;;;10.38;4.65;;;;;;;;;;2081738;28;99967;-17
2021/08/31 14:35:01;;;;;;;6.90;4.63;;;;;;;;;;2090794;27;100112;-19
2021/08/31 14:36:02;;;;;;;9.48;4.57;;;;;;;;;;2090496;27;99997;-17
2021/08/31 14:37:04;;;;;;;9.98;4.47;;;;;;;;;;2090519;27;100208;-19
2021/08/31 14:38:05;;;;;;;7.82;4.25;;;;;;;;;;2082340;27;99924;-17
2021/08/31 14:39:06;;;;;;;8.75;4.43;;;;;;;;;;2090814;27;100121;-19
2021/08/31 14:40:10;;;;;;;8.93;4.60;;;;;;;;;;2091401;27;99862;-16
2021/08/31 14:41:12;;;;;;;8.50;4.75;;;;;;;;;;2091602;27;100044;-18
2021/08/31 14:42:13;;;;;;;8.10;4.57;;;;;;;;;;2091009;27;100350;-18
2021/08/31 14:43:14;;;;;;;8.75;4.50;;;;;;;;;;2091611;27;99799;-19
2021/08/31 14:44:17;;;;;;;8.02;4.32;;;;;;;;;;2091323;27;100006;-16
2021/08/31 14:45:18;;;;;;;7.07;4.80;;;;;;;;;;2091409;27;100003;-15
2021/08/31 14:46:19;;;;;;;9.05;4.38;;;;;;;;;;2082116;28;100829;-15
2021/08/31 14:47:20;;;;;;;7.38;3.97;;;;;;;;;;2082818;27;99890;-17
2021/08/31 14:48:21;;;;;;;5.97;4.03;;;;;;;;;;2091406;27;99798;-17
2021/08/31 14:49:22;;;;;;;9.35;4.80;;;;;;;;;;2091295;27;100143;-16
2021/08/31 14:50:24;;;;;;;8.23;4.70;;;;;;;;;;2091717;27;100026;-18
2021/08/31 14:51:25;;;;;;;10.75;4.68;;;;;;;;;;2091710;27;99930;-18
2021/08/31 14:52:26;;;;;;;6.32;4.18;;;;;;;;;;2082200;28;100027;-19
2021/08/31 14:53:27;;;;;;;7.95;4.03;;;;;;;;;;2082665;27;100023;-18
2021/08/31 14:54:30;;;;;;;10.05;4.57;;;;;;;;;;2090632;27;99896;-18
2021/08/31 14:55:31;;;;;;;8.30;4.30;;;;;;;;;;2099434;27;100104;-18
2021/08/31 14:56:32;;;;;;;7.78;4.32;;;;;;;;;;2098521;27;99939;-18
2021/08/31 14:57:34;;;;;;;5.95;4.18;;;;;;;;;;2082574;28;100150;-18
2021/08/31 14:58:35;;;;;;;9.15;4.47;;;;;;;;;;2082906;27;100108;-17
2021/08/31 14:59:36;;;;;;;6.75;4.15;;;;;;;;;;2091036;27;100040;-17
2021/08/31 15:00:38;;;;;;;6.85;4.45;;;;;;;;;;2090679;27;100041;-19
2021/08/31 15:01:40;;;;;;;6.88;4.68;;;;;;;;;;2091499;27;99768;-17
2021/08/31 15:02:41;;;;;;;8.95;4.03;;;;;;;;;;2090380;27;100166;-16
2021/08/31 15:03:42;;;;;;;6.88;4.55;;;;;;;;;;2090382;27;100019;-18
2021/08/31 15:04:43;;;;;;;6.30;4.30;;;;;;;;;;2091111;27;99938;-16
2021/08/31 15:05:45;;;;;;;8.93;3.95;;;;;;;;;;2090532;27;100059;-19
2021/08/31 15:06:46;;;;;;;6.65;4.50;;;;;;;;;;2082388;27;99965;-17
2021/08/31 15:07:47;;;;;;;8.98;4.10;;;;;;;;;;2090852;27;99881;-19
2021/08/31 15:08:49;;;;;;;8.55;4.43;;;;;;;;;;2090908;27;100141;-17
2021/08/31 15:09:50;;;;;;;10.18;4.50;;;;;;;;;;2091561;27;99766;-16
2021/08/31 15:10:51;;;;;;;7.13;4.55;;;;;;;;;;2090091;27;99860;-17
2021/08/31 15:11:53;;;;;;;8.50;4.20;;;;;;;;;;2090701;27;99998;-19
2021/08/31 15:12:54;;;;;;;;;;;;;;;;;;2091416;27;99939;-17
2021/08/31 15:13:55;;;;;;;8.75;4.68;;;;;;;;;;2091121;27;100206;-17
2021/08/31 15:14:59;;;;;;;8.00;4.15;;;;;;;;;;2091269;27;99843;-19
2021/08/31 15:16:00;;;;;;;6.50;4.03;;;;;;;;;;2091354;27;99768;-19
2021/08/31 15:17:01;;;;;;;8.95;4.63;;;;;;;;;;2091110;27;100238;-18
2021/08/31 15:18:07;;;;;;;10.32;4.85;;;;;;;;;;2091114;27;99855;-16
2021/08/31 15:19:08;;;;;;;10.70;4.10;;;;;;;;;;2090977;27;100113;-15
2021/08/31 15:20:10;;;;;;;7.20;4.70;;;;;;;;;;2091439;27;99849;-16
2021/08/31 15:21:11;;;;;;;7.15;4.35;;;;;;;;;;2091237;27;99835;-15
2021/08/31 15:22:12;;;;;;;8.77;4.68;;;;;;;;;;2090951;27;100354;-17
2021/08/31 15:23:13;;;;;;;6.05;4.43;;;;;;;;;;2091089;27;99847;-17
2021/08/31 15:24:15;;;;;;;8.35;4.60;;;;;;;;;;2090732;27;100061;-17
2021/08/31 15:25:16;;;;;;;8.60;4.32;;;;;;;;;;2090450;27;100498;-18
2021/08/31 15:26:17;;;;;;;7.15;4.75;;;;;;;;;;2090605;27;100284;-16
2021/08/31 15:27:22;;;;;;;7.18;4.10;;;;;;;;;;2090017;27;100035;-15
2021/08/31 15:28:23;;;;;;;6.53;4.18;;;;;;;;;;2090256;27;100108;-19
2021/08/31 15:29:24;;;;;;;6.90;4.28;;;;;;;;;;2090166;27;99880;-19
2021/08/31 15:30:26;;;;;;;10.65;4.85;;;;;;;;;;2090699;27;100175;-15
2021/08/31 15:31:32;;;;;;;6.25;4.20;;;;;;;;;;2090800;27;100206;-15
2021/08/31 15:32:33;;;;;;;6.72;4.43;;;;;;;;;;2090908;27;99939;-18
2021/08/31 15:33:36;;;;;;;7.00;4.45;;;;;;;;;;2090421;27;99841;-16
2021/08/31 15:34:37;;;;;;;7.40;4.32;;;;;;;;;;2089807;27;99984;-25
2021/08/31 15:35:38;;;;;;;9.63;4.45;;;;;;;;;;2091137;27;99886;-16
2021/08/31 15:36:41;;;;;;;9.20;4.20;;;;;;;;;;2089881;27;100059;-18
2021/08/31 15:37:42;;;;;;;6.53;4.18;;;;;;;;;;2090548;27;100292;-18
2021/08/31 15:38:43;;;;;;;8.38;4.75;;;;;;;;;;2090900;27;99946;-19